createdAt,value
2023-02-27T00:04:12.391Z,100916.60
2023-02-27T00:20:39.107Z,100929.80
2023-02-27T00:40:31.573Z,100935.80
2023-02-27T00:59:50.597Z,100959.60
2023-02-27T01:05:22.651Z,100969.40
2023-02-27T01:10:26.600Z,100975.00
2023-02-27T01:15:30.196Z,100975.40
2023-02-27T01:21:56.147Z,100979.40
2023-02-27T01:48:42.111Z,100991.00
2023-02-27T02:12:45.676Z,101016.80
2023-02-27T02:18:30.560Z,101021.80
2023-02-27T02:31:43.880Z,101036.60
2023-02-27T02:44:26.058Z,101042.40
2023-02-27T02:58:58.501Z,101066.40
2023-02-27T03:10:31.076Z,101076.60
2023-02-27T03:16:53.740Z,101074.40
2023-02-27T03:22:07.657Z,101082.80
2023-02-27T03:27:13.419Z,101088.40
2023-02-27T03:33:01.822Z,101084.00
2023-02-27T03:38:40.785Z,101090.40
2023-02-27T03:44:03.637Z,101092.40
2023-02-27T03:50:38.815Z,101098.20
2023-02-27T03:55:46.945Z,101106.40
2023-02-27T04:09:10.479Z,101119.60
2023-02-27T04:14:35.808Z,101125.40
2023-02-27T04:20:16.698Z,101122.20
2023-02-27T04:25:50.320Z,101132.40
2023-02-27T04:38:50.629Z,101155.00
2023-02-27T04:43:55.690Z,101156.80
2023-02-27T04:49:12.820Z,101160.80
2023-02-27T04:54:28.245Z,101167.80
2023-02-27T05:01:12.116Z,101176.80
2023-02-27T05:22:34.217Z,101203.60
2023-02-27T05:28:33.690Z,101207.40
2023-02-27T05:42:12.699Z,101221.60
2023-02-27T06:15:32.946Z,101263.20
2023-02-27T06:21:01.843Z,101264.40
2023-02-27T06:26:33.736Z,101268.20
2023-02-27T06:31:37.152Z,101279.40
2023-02-27T06:36:49.857Z,101282.80
2023-02-27T06:41:53.484Z,101284.60
2023-02-27T06:47:00.168Z,101289.20
2023-02-27T06:52:03.895Z,101296.60
2023-02-27T06:57:07.726Z,101307.80
2023-02-27T07:09:15.516Z,101308.40
2023-02-27T07:14:19.031Z,101310.80
2023-02-27T07:19:24.583Z,101318.20
2023-02-27T07:25:19.728Z,101313.20
2023-02-27T07:30:23.473Z,101321.60
2023-02-27T07:35:27.220Z,101327.20
2023-02-27T07:40:30.909Z,101333.40
2023-02-27T08:03:59.555Z,101357.40
2023-02-27T08:10:46.202Z,101362.00
2023-02-27T08:17:32.413Z,101368.80
2023-02-27T08:23:52.398Z,101368.60
2023-02-27T08:36:53.813Z,101383.40
2023-02-27T08:41:57.470Z,101386.80
2023-02-27T08:48:17.648Z,101388.80
2023-02-27T08:53:21.220Z,101395.20
2023-02-27T08:59:10.377Z,101399.20
2023-02-27T09:11:19.355Z,101399.60
2023-02-27T09:30:45.048Z,101421.40
2023-02-27T09:40:32.079Z,101431.60
2023-02-27T09:45:39.725Z,101430.40
2023-02-27T09:50:48.063Z,101431.00
2023-02-27T09:56:47.870Z,101438.40
2023-02-27T10:02:25.393Z,101444.20
2023-02-27T10:07:58.711Z,101446.80
2023-02-27T10:13:27.213Z,101450.00
2023-02-27T10:19:00.136Z,101461.60
2023-02-27T10:31:35.700Z,101463.20
2023-02-27T10:37:07.540Z,101478.00
2023-02-27T10:49:25.054Z,101480.80
2023-02-27T10:55:30.874Z,101481.00
2023-02-27T11:00:50.987Z,101492.60
2023-02-27T11:06:05.176Z,101485.20
2023-02-27T11:11:28.116Z,101483.20
2023-02-27T11:23:50.738Z,101503.80
2023-02-27T11:29:15.395Z,101495.80
2023-02-27T11:34:50.105Z,101490.60
2023-02-27T11:40:10.706Z,101482.80
2023-02-27T11:46:05.021Z,101484.20
2023-02-27T11:51:28.718Z,101488.00
2023-02-27T11:57:01.316Z,101482.40
2023-02-27T12:03:17.895Z,101484.20
2023-02-27T12:08:55.591Z,101484.20
2023-02-27T12:14:25.560Z,101486.00
2023-02-27T12:19:46.305Z,101491.20
2023-02-27T12:25:07.392Z,101498.40
2023-02-27T12:37:48.117Z,101495.60
2023-02-27T12:51:10.780Z,101502.40
2023-02-27T13:04:03.590Z,101514.40
2023-02-27T13:09:21.961Z,101514.00
2023-02-27T13:14:55.178Z,101508.20
2023-02-27T13:20:21.410Z,101509.40
2023-02-27T13:25:42.363Z,101512.20
2023-02-27T13:39:39.386Z,101473.60
2023-02-27T13:44:46.065Z,101480.80
2023-02-27T13:57:47.414Z,101493.20
2023-02-27T14:03:23.077Z,101480.80
2023-02-27T14:09:08.872Z,101474.60
2023-02-27T14:14:42.294Z,101480.00
2023-02-27T14:19:50.886Z,101471.40
2023-02-27T14:25:24.952Z,101472.00
2023-02-27T14:31:29.305Z,101475.20
2023-02-27T14:36:53.967Z,101598.20
2023-02-27T14:42:47.161Z,101530.40
2023-02-27T14:48:14.369Z,101486.80
2023-02-27T14:53:31.553Z,101555.40
2023-02-27T14:59:57.084Z,101613.00
2023-02-27T15:05:03.789Z,101613.60
2023-02-27T15:10:17.560Z,101603.20
2023-02-27T15:22:39.905Z,101608.80
2023-02-27T15:27:44.072Z,101601.20
2023-02-27T15:32:47.791Z,101605.00
2023-02-27T15:37:59.703Z,101603.00
2023-02-27T15:44:50.834Z,101608.00
2023-02-27T15:50:07.282Z,101610.20
2023-02-27T16:10:28.444Z,101625.00
2023-02-27T16:17:02.041Z,101628.40
2023-02-27T16:22:15.706Z,101632.80
2023-02-27T16:27:30.477Z,101634.60
2023-02-27T16:32:44.434Z,101649.40
2023-02-27T16:38:43.302Z,101646.20
2023-02-27T16:50:55.279Z,101661.20
2023-02-27T16:55:59.130Z,101672.00
2023-02-27T17:01:03.406Z,101671.20
2023-02-27T17:21:59.291Z,101702.20
2023-02-27T17:27:03.052Z,101708.80
2023-02-27T17:32:07.360Z,101708.40
2023-02-27T17:37:11.363Z,101712.20
2023-02-27T17:42:18.813Z,101719.00
2023-02-27T17:47:23.292Z,101724.60
2023-02-27T17:52:28.000Z,101723.20
2023-02-27T17:57:31.747Z,101726.20
2023-02-27T18:03:00.757Z,101724.60
2023-02-27T18:08:04.415Z,101730.00
2023-02-27T18:13:08.430Z,101737.00
2023-02-27T18:18:13.471Z,101741.20
2023-02-27T18:23:17.406Z,101738.80
2023-02-27T18:28:21.277Z,101742.20
2023-02-27T18:33:26.381Z,101741.60
2023-02-27T18:38:30.343Z,101741.20
2023-02-27T18:43:34.442Z,101746.60
2023-02-27T18:48:39.687Z,101752.60
2023-02-27T19:08:30.863Z,101768.60
2023-02-27T19:20:52.475Z,101778.60
2023-02-27T19:26:53.536Z,101784.80
2023-02-27T19:40:28.246Z,101800.20
2023-02-27T19:45:33.363Z,101806.40
2023-02-27T19:51:28.652Z,101808.80
2023-02-27T19:56:32.465Z,101807.20
2023-02-27T20:02:59.078Z,101814.80
2023-02-27T20:08:02.996Z,101821.00
2023-02-27T20:13:08.473Z,101820.80
2023-02-27T20:18:12.338Z,101824.80
2023-02-27T20:23:18.673Z,101826.40
2023-02-27T20:28:23.795Z,101825.40
2023-02-27T20:33:27.507Z,101827.00
2023-02-27T20:38:33.645Z,101839.60
2023-02-27T20:43:39.084Z,101841.60
2023-02-27T20:48:44.125Z,101842.80
2023-02-27T20:53:52.238Z,101839.80
2023-02-27T20:58:56.071Z,101835.80
2023-02-27T21:04:03.309Z,101840.60
2023-02-27T21:16:26.046Z,101851.00
2023-02-27T21:21:33.865Z,101850.80
2023-02-27T21:27:27.705Z,101846.60
2023-02-27T21:32:31.273Z,101854.40
2023-02-27T21:37:34.999Z,101850.20
2023-02-27T21:42:38.649Z,101853.40
2023-02-27T21:47:48.813Z,101856.20
2023-02-27T21:52:52.428Z,101860.80
2023-02-27T21:57:56.455Z,101854.40
2023-02-27T22:03:00.212Z,101865.60
2023-02-27T22:08:16.339Z,101867.40
2023-02-27T22:13:19.945Z,101870.20
2023-02-27T22:18:27.681Z,101857.00
2023-02-27T22:23:31.195Z,101852.00
2023-02-27T22:28:40.294Z,101851.40
2023-02-27T22:33:46.446Z,101842.00
2023-02-27T22:38:51.838Z,101845.60
2023-02-27T22:43:56.896Z,101848.40
2023-02-27T22:49:21.300Z,101847.60
2023-02-27T22:54:25.091Z,101842.60
2023-02-27T22:59:28.690Z,101842.20
2023-02-27T23:04:32.396Z,101851.00
2023-02-27T23:09:35.992Z,101857.20
2023-02-27T23:14:39.605Z,101858.60
2023-02-27T23:19:44.265Z,101863.00
2023-02-27T23:24:47.878Z,101862.00
2023-02-27T23:29:51.827Z,101861.00
2023-02-27T23:34:55.631Z,101866.80
2023-02-27T23:39:59.304Z,101862.40
2023-02-27T23:45:12.305Z,101865.00
2023-02-27T23:50:15.821Z,101865.80
2023-02-27T23:55:21.602Z,101866.20
